Time;durP1;ratioP1;P1;durP2;ratioP2;P2;SDS_P1;SDS_P2;PMS_P1;PMS_P2;Temp;Humidity;BMP_temperature;BMP_pressure;BME280_temperature;BME280_humidity;BME280_pressure;Samples;Min_cycle;Max_cycle;Signal;HPM_P1;HPM_P2
2023/08/18 00:01:03;;;;;;;19.53;17.07;;;17.80;99.90;;;17.40;99.20;101241.59;5054865;28;20187;-73
2023/08/18 00:03:35;;;;;;;19.80;15.50;;;17.70;99.90;;;17.43;99.36;101234.97;5054363;28;20230;-73
2023/08/18 00:06:07;;;;;;;19.03;14.97;;;17.90;99.90;;;17.44;99.54;101232.06;5054436;28;20191;-73
2023/08/18 00:08:40;;;;;;;19.83;14.70;;;17.80;99.90;;;17.42;99.18;101233.28;5054402;28;20704;-73
2023/08/18 00:11:12;;;;;;;18.33;14.80;;;17.80;99.90;;;17.43;99.65;101240.38;5054243;28;20206;-73
2023/08/18 00:13:44;;;;;;;21.20;14.73;;;17.80;99.90;;;17.43;99.71;101235.78;5054497;28;20258;-73
2023/08/18 00:16:16;;;;;;;17.93;14.97;;;17.80;99.90;;;17.43;99.60;101235.78;5054579;28;20624;-73
2023/08/18 00:18:48;;;;;;;20.50;15.50;;;17.90;99.90;;;17.43;99.23;101232.25;5054196;28;20197;-73
2023/08/18 00:21:20;;;;;;;17.27;14.73;;;17.80;99.90;;;17.40;99.50;101230.75;5054504;28;20262;-73
2023/08/18 00:23:53;;;;;;;19.47;17.00;;;17.80;99.90;;;17.38;99.62;101232.84;5054410;28;20265;-73
2023/08/18 00:26:25;;;;;;;19.43;15.93;;;17.80;99.90;;;17.34;100.00;101226.13;5053646;28;20237;-73
2023/08/18 00:28:57;;;;;;;18.97;16.47;;;17.70;99.90;;;17.36;99.98;101218.66;5054319;28;20570;-73
2023/08/18 00:31:29;;;;;;;21.03;16.77;;;17.80;99.90;;;17.37;99.87;101217.63;5054198;28;20305;-73
2023/08/18 00:34:01;;;;;;;23.63;17.47;;;17.70;99.90;;;17.37;99.94;101220.31;5054181;28;20233;-73
2023/08/18 00:36:33;;;;;;;20.90;16.03;;;17.70;99.90;;;17.38;99.79;101226.56;5054215;28;20273;-73
2023/08/18 00:39:05;;;;;;;23.97;16.37;;;17.80;99.90;;;17.37;99.58;101223.03;5053796;28;20281;-73
2023/08/18 00:41:37;;;;;;;21.47;16.47;;;17.80;99.90;;;17.35;99.52;101230.50;5054076;28;20210;-73
2023/08/18 00:44:09;;;;;;;21.23;16.60;;;17.80;99.90;;;17.37;99.37;101225.72;5053935;28;20228;-73
2023/08/18 00:46:41;;;;;;;23.70;15.30;;;17.70;99.90;;;17.35;99.34;101233.22;5053838;28;20304;-73
2023/08/18 00:49:14;;;;;;;22.40;16.37;;;17.80;99.90;;;17.28;99.85;101232.31;5053926;28;20298;-73
2023/08/18 00:51:48;;;;;;;24.37;16.47;;;17.80;99.90;;;17.29;100.00;101216.91;5053829;28;20216;-73
2023/08/18 00:54:21;;;;;;;24.40;17.00;;;17.60;99.90;;;17.27;100.00;101219.81;5053476;28;20316;-73
2023/08/18 00:56:53;;;;;;;24.60;16.53;;;17.70;99.90;;;17.27;100.00;101222.50;5053843;28;20543;-72
2023/08/18 00:59:26;;;;;;;23.27;16.47;;;17.70;99.90;;;17.28;100.00;101226.91;5053778;28;20269;-72
2023/08/18 01:02:02;;;;;;;23.10;17.43;;;17.70;99.90;;;17.26;100.00;101220.00;5053772;28;20265;-72
2023/08/18 01:04:34;;;;;;;23.27;16.60;;;17.70;99.90;;;17.27;100.00;101219.81;5053303;28;20777;-72
2023/08/18 01:07:06;;;;;;;26.73;18.80;;;17.60;99.90;;;17.25;100.00;101227.28;5053330;28;20284;-71
2023/08/18 01:09:40;;;;;;;24.83;17.70;;;17.70;99.90;;;17.22;100.00;101219.56;5053696;28;20225;-72
2023/08/18 01:12:24;;;;;;;22.23;16.93;;;17.60;99.90;;;17.27;100.00;101219.81;5053539;28;20210;-73
2023/08/18 01:15:08;;;;;;;24.37;18.43;;;17.80;99.90;;;17.24;100.00;101214.78;5053269;28;20190;-73
2023/08/18 01:17:50;;;;;;;24.77;17.47;;;17.60;99.90;;;17.28;100.00;101221.47;5053555;28;20285;-73
2023/08/18 01:20:23;;;;;;;24.33;17.37;;;17.70;99.90;;;17.29;100.00;101225.88;5053648;28;20241;-73
2023/08/18 01:23:01;;;;;;;23.20;17.93;;;17.70;99.90;;;17.28;100.00;101224.19;5053330;28;20317;-73
2023/08/18 01:25:34;;;;;;;22.00;17.57;;;17.70;99.90;;;17.29;100.00;101216.91;5053432;28;20235;-73
2023/08/18 01:28:07;;;;;;;24.80;17.77;;;17.70;99.90;;;17.30;100.00;101214.00;5053080;28;20562;-73
2023/08/18 01:30:47;;;;;;;20.77;17.80;;;17.70;99.90;;;17.31;100.00;101220.25;5053323;28;20197;-73
2023/08/18 01:33:29;;;;;;;21.87;17.30;;;17.80;99.90;;;17.32;100.00;101222.78;5052975;28;20232;-73
2023/08/18 01:36:08;;;;;;;22.33;18.70;;;17.70;99.90;;;17.35;100.00;101225.09;5053351;28;20566;-73
2023/08/18 01:38:43;;;;;;;24.17;18.47;;;17.80;99.90;;;17.35;100.00;101211.56;5056325;28;20276;-72
2023/08/18 01:41:20;;;;;;;28.00;19.97;;;17.70;99.90;;;17.32;100.00;101206.53;5057475;28;20218;-72
2023/08/18 01:43:52;;;;;;;22.53;18.23;;;17.70;99.90;;;17.30;100.00;101203.19;5057388;28;20320;-72
2023/08/18 01:46:24;;;;;;;23.60;18.93;;;17.70;99.90;;;17.33;100.00;101201.97;5057096;28;20263;-72
2023/08/18 01:48:56;;;;;;;26.70;19.63;;;17.70;99.90;;;17.31;100.00;101199.44;5056969;28;20200;-72
2023/08/18 01:51:28;;;;;;;31.00;20.70;;;17.70;99.90;;;17.28;100.00;101197.13;5057176;28;20210;-72
2023/08/18 01:54:01;;;;;;;27.37;18.87;;;17.60;99.90;;;17.29;100.00;101209.63;5057193;28;20650;-73
2023/08/18 01:56:33;;;;;;;28.00;19.63;;;17.70;99.90;;;17.29;100.00;101216.91;5056888;28;20237;-73
2023/08/18 01:59:05;;;;;;;27.07;19.00;;;17.70;99.90;;;17.30;100.00;101223.97;5057093;28;20285;-73
2023/08/18 02:01:37;;;;;;;33.13;19.33;;;17.70;99.90;;;17.30;100.00;101213.16;5057078;28;20273;-73
2023/08/18 02:04:08;;;;;;;27.27;19.77;;;17.70;99.90;;;17.27;100.00;101208.97;5056651;28;20712;-73
2023/08/18 02:06:40;;;;;;;30.50;19.17;;;17.70;99.90;;;17.25;100.00;101202.94;5057016;28;20222;-73
2023/08/18 02:09:13;;;;;;;29.87;19.37;;;17.60;99.90;;;17.22;100.00;101214.16;5056930;28;20194;-73
2023/08/18 02:11:45;;;;;;;31.30;19.20;;;17.60;99.90;;;17.26;100.00;101203.78;5056506;28;20676;-73
2023/08/18 02:14:17;;;;;;;25.90;18.77;;;17.70;99.90;;;17.27;100.00;101202.72;5056541;28;20599;-73
2023/08/18 02:16:51;;;;;;;28.17;18.30;;;17.60;99.90;;;17.28;100.00;101194.41;5056500;28;20286;-73
2023/08/18 02:19:23;;;;;;;27.63;18.87;;;17.70;99.90;;;17.26;100.00;101191.06;5056460;28;20190;-73
2023/08/18 02:21:55;;;;;;;32.53;19.43;;;17.70;99.90;;;17.23;100.00;101195.00;5056971;28;20186;-73
2023/08/18 02:24:28;;;;;;;28.43;18.07;;;17.70;99.90;;;17.26;100.00;101196.47;5056577;28;20226;-73
2023/08/18 02:27:00;;;;;;;30.13;20.10;;;17.70;99.90;;;17.23;100.00;101192.28;5056654;28;20194;-73
2023/08/18 02:29:32;;;;;;;34.77;21.13;;;17.60;99.90;;;17.22;100.00;101184.38;5056292;28;20222;-73
2023/08/18 02:32:04;;;;;;;27.00;19.80;;;17.60;99.90;;;17.20;100.00;101189.97;5056489;28;20242;-73
2023/08/18 02:34:36;;;;;;;34.80;20.83;;;17.60;99.90;;;17.19;100.00;101188.28;5056073;28;20227;-73
2023/08/18 02:37:08;;;;;;;34.30;20.57;;;17.60;99.90;;;17.18;100.00;101188.50;5056439;28;20226;-73
2023/08/18 02:39:41;;;;;;;28.13;19.27;;;17.60;99.90;;;17.19;100.00;101174.75;5056411;28;20281;-73
2023/08/18 02:42:14;;;;;;;30.40;19.97;;;17.60;99.90;;;17.19;100.00;101179.34;5056376;28;20281;-73
2023/08/18 02:44:46;;;;;;;32.03;21.23;;;17.60;99.90;;;17.19;100.00;101180.16;5055889;28;20237;-73
2023/08/18 02:47:18;;;;;;;25.93;18.33;;;17.60;99.90;;;17.18;100.00;101178.50;5055971;28;20312;-73
2023/08/18 02:49:51;;;;;;;27.60;20.37;;;17.60;99.90;;;17.19;100.00;101177.47;5055960;28;20186;-73
2023/08/18 02:52:23;;;;;;;29.37;20.70;;;17.60;99.90;;;17.19;100.00;101180.16;5056608;28;20259;-73
2023/08/18 02:54:55;;;;;;;32.27;19.23;;;17.70;99.90;;;17.21;100.00;101171.88;5055807;28;20197;-73
2023/08/18 02:57:27;;;;;;;25.17;18.93;;;17.60;99.90;;;17.21;100.00;101179.97;5056075;28;20282;-73
2023/08/18 02:59:59;;;;;;;31.63;19.37;;;17.60;99.90;;;17.19;100.00;101182.06;5056188;28;20252;-73
2023/08/18 03:02:33;;;;;;;30.30;19.87;;;17.60;99.90;;;17.21;100.00;101182.69;5055867;28;20186;-73
2023/08/18 03:05:05;;;;;;;27.93;19.93;;;17.60;99.90;;;17.17;100.00;101181.41;5055930;28;20190;-73
2023/08/18 03:07:37;;;;;;;29.63;19.27;;;17.60;99.90;;;17.16;100.00;101179.72;5055834;28;20652;-73
2023/08/18 03:10:10;;;;;;;28.33;19.23;;;17.60;99.90;;;17.17;100.00;101181.41;5055575;28;20281;-73
2023/08/18 03:12:42;;;;;;;23.97;16.97;;;17.50;99.90;;;17.18;100.00;101183.09;5055628;28;20210;-72
2023/08/18 03:15:16;;;;;;;22.63;16.83;;;17.60;99.90;;;17.20;100.00;101173.72;5055743;28;20197;-72
2023/08/18 03:17:49;;;;;;;24.20;17.00;;;17.60;99.90;;;17.17;100.00;101175.97;5056520;28;20194;-72
2023/08/18 03:20:21;;;;;;;26.03;17.50;;;17.60;99.90;;;17.15;100.00;101191.59;5055645;28;20191;-72
2023/08/18 03:22:53;;;;;;;25.70;17.03;;;17.50;99.90;;;17.13;100.00;101193.63;5055287;28;20222;-73
2023/08/18 03:25:26;;;;;;;19.73;16.13;;;17.50;99.90;;;17.15;100.00;101188.88;5055170;28;20647;-73
2023/08/18 03:27:58;;;;;;;20.50;15.60;;;17.50;99.90;;;17.14;100.00;101181.78;5055475;28;20252;-73
2023/08/18 03:30:30;;;;;;;22.33;15.87;;;17.60;99.90;;;17.14;100.00;101170.97;5055412;28;20187;-73
2023/08/18 03:33:03;;;;;;;20.83;15.77;;;17.60;99.90;;;17.17;100.00;101187.66;5055247;28;20230;-73
2023/08/18 03:35:36;;;;;;;19.23;15.03;;;17.60;99.90;;;17.14;100.00;101177.22;5055329;28;20194;-73
2023/08/18 03:38:09;;;;;;;19.53;15.07;;;17.60;99.90;;;17.13;100.00;101171.97;5055277;28;20286;-73
2023/08/18 03:40:42;;;;;;;18.90;14.90;;;17.60;99.90;;;17.13;100.00;101180.09;5055255;28;20194;-73
2023/08/18 03:43:14;;;;;;;20.53;15.73;;;17.50;99.90;;;17.12;100.00;101173.84;5055078;28;20312;-73
2023/08/18 03:45:48;;;;;;;18.87;15.60;;;17.50;99.90;;;17.12;100.00;101171.13;5055376;28;20197;-73
2023/08/18 03:48:20;;;;;;;16.33;14.47;;;17.70;99.90;;;17.11;100.00;101171.34;5054776;28;20221;-73
2023/08/18 03:50:53;;;;;;;18.27;14.83;;;17.10;99.90;;;17.05;100.00;101172.97;5055310;28;20339;-73
2023/08/18 03:53:25;;;;;;;18.43;13.80;;;17.50;99.90;;;17.06;100.00;101171.91;5054738;28;20226;-73
2023/08/18 03:56:02;;;;;;;16.73;14.37;;;17.50;99.90;;;17.06;100.00;101169.22;5055092;28;20202;-72
2023/08/18 03:58:34;;;;;;;15.50;13.83;;;17.50;99.90;;;17.07;100.00;101175.47;5054907;28;20354;-73
2023/08/18 04:01:08;;;;;;;19.40;15.30;;;17.50;99.90;;;17.09;100.00;101176.94;5054079;28;20244;-73
2023/08/18 04:03:43;;;;;;;19.17;13.57;;;17.50;99.90;;;17.11;100.00;101174.06;5055107;28;20221;-73
2023/08/18 04:06:16;;;;;;;16.40;14.20;;;17.60;99.90;;;17.13;100.00;101171.97;5054466;28;20225;-73
2023/08/18 04:08:48;;;;;;;17.33;14.23;;;17.60;99.90;;;17.14;100.00;101165.56;5054418;28;20577;-73
2023/08/18 04:11:21;;;;;;;16.67;13.83;;;17.60;99.90;;;17.14;100.00;101166.41;5054707;28;20198;-73
2023/08/18 04:13:53;;;;;;;13.37;12.07;;;17.60;99.90;;;17.18;100.00;101166.84;5054803;28;20322;-73
2023/08/18 04:16:25;;;;;;;10.70;9.70;;;17.70;99.90;;;17.17;100.00;101171.41;5054161;28;20281;-73
2023/08/18 04:18:57;;;;;;;14.87;13.13;;;17.60;99.90;;;17.20;100.00;101170.19;5054269;28;20652;-73
2023/08/18 04:21:29;;;;;;;15.40;13.80;;;17.60;99.90;;;17.19;100.00;101166.63;5054457;28;20281;-72
2023/08/18 04:24:02;;;;;;;11.90;10.70;;;17.60;99.90;;;17.20;100.00;101170.19;5054451;28;20313;-73
2023/08/18 04:26:37;;;;;;;16.27;12.77;;;17.60;99.90;;;17.19;100.00;101166.63;5054622;28;20293;-73
2023/08/18 04:29:09;;;;;;;14.43;12.77;;;17.60;99.90;;;17.19;100.00;101165.81;5054044;28;20240;-73
2023/08/18 04:31:41;;;;;;;15.47;13.50;;;17.60;99.90;;;17.15;100.00;101161.81;5054261;28;20212;-73
2023/08/18 04:34:13;;;;;;;16.77;14.40;;;17.60;99.90;;;17.15;100.00;101168.06;5053814;28;20696;-73
2023/08/18 04:36:45;;;;;;;15.17;13.60;;;17.60;99.90;;;17.17;100.00;101173.28;5054626;28;20263;-73
2023/08/18 04:39:17;;;;;;;14.83;12.87;;;17.60;99.90;;;17.11;100.00;101169.50;5054207;28;20198;-73
2023/08/18 04:41:51;;;;;;;14.37;12.87;;;17.50;99.90;;;17.13;100.00;101178.22;5054059;28;20637;-73
2023/08/18 04:44:23;;;;;;;15.10;13.43;;;17.60;99.90;;;17.12;100.00;101173.03;5054004;28;20226;-73
2023/08/18 04:46:54;;;;;;;16.43;13.80;;;17.50;99.90;;;17.11;100.00;101176.75;5053792;28;20309;-73
2023/08/18 04:49:26;;;;;;;16.97;13.43;;;17.50;99.90;;;17.13;100.00;101185.50;5053627;28;20656;-73
2023/08/18 04:51:58;;;;;;;14.63;13.17;;;17.60;99.90;;;17.13;100.00;101175.53;5054154;28;20282;-73
2023/08/18 04:54:30;;;;;;;13.00;11.80;;;17.60;99.90;;;17.15;100.00;101184.31;5053773;28;20234;-73
2023/08/18 04:57:04;;;;;;;13.43;10.50;;;17.60;99.90;;;17.17;100.00;101186.81;5053853;28;20218;-73
2023/08/18 04:59:36;;;;;;;13.57;12.17;;;17.60;99.90;;;17.18;100.00;101188.50;5053828;28;20198;-73
2023/08/18 05:02:08;;;;;;;14.30;12.80;;;17.60;99.90;;;17.11;100.00;101177.59;5053417;28;20229;-73
2023/08/18 05:04:39;;;;;;;13.87;12.47;;;17.60;99.90;;;17.07;100.00;101181.72;5053662;28;20226;-73
2023/08/18 05:07:11;;;;;;;14.00;12.60;;;17.50;99.90;;;17.08;100.00;101171.75;5053745;28;20186;-73
2023/08/18 05:09:43;;;;;;;12.50;11.30;;;17.60;99.90;;;17.11;100.00;101176.75;5053675;28;20209;-64
2023/08/18 05:12:16;;;;;;;13.57;12.17;;;17.50;99.90;;;17.11;100.00;101168.66;5053844;28;20198;-74
2023/08/18 05:14:48;;;;;;;14.13;12.13;;;17.60;99.90;;;17.12;100.00;101173.03;5053469;28;20269;-74
2023/08/18 05:17:20;;;;;;;14.50;13.10;;;17.50;99.90;;;17.11;100.00;101174.91;5054001;28;20214;-73
2023/08/18 05:19:52;;;;;;;16.10;12.03;;;17.60;99.90;;;17.14;100.00;101179.06;5053449;28;20645;-73
2023/08/18 05:22:24;;;;;;;15.30;12.90;;;17.50;99.90;;;17.17;100.00;101182.25;5053950;28;20256;-73
2023/08/18 05:24:56;;;;;;;13.30;11.93;;;17.70;99.90;;;17.18;100.00;101175.81;5053911;28;20187;-73
2023/08/18 05:27:30;;;;;;;13.97;12.40;;;17.70;99.90;;;17.19;100.00;101169.34;5053901;28;20198;-74
2023/08/18 05:30:02;;;;;;;14.40;12.10;;;17.60;99.90;;;17.20;100.00;101181.00;5053493;28;20194;-72
2023/08/18 05:32:34;;;;;;;13.63;12.20;;;17.60;99.90;;;17.20;100.00;101172.88;5054036;28;20225;-74
2023/08/18 05:35:06;;;;;;;13.97;12.40;;;17.70;99.90;;;17.19;100.00;101174.75;5053101;28;20197;-73
2023/08/18 05:37:38;;;;;;;13.67;12.37;;;17.60;99.90;;;17.21;100.00;101174.56;5053351;28;20197;-73
2023/08/18 05:40:12;;;;;;;12.47;11.10;;;17.60;99.90;;;17.22;100.00;101178.97;5053323;28;20285;-73
2023/08/18 05:42:45;;;;;;;11.80;10.53;;;17.80;99.90;;;17.22;100.00;101178.97;5052943;28;20229;-73
2023/08/18 05:45:17;;;;;;;13.20;11.83;;;17.70;99.90;;;17.22;100.00;101185.22;5053254;28;20216;-73
2023/08/18 05:47:49;;;;;;;16.67;12.60;;;17.70;99.90;;;17.21;100.00;101177.28;5052887;28;20214;-73
2023/08/18 05:50:21;;;;;;;14.83;12.83;;;17.70;99.90;;;17.20;100.00;101181.84;5053285;28;20190;-73
2023/08/18 05:52:53;;;;;;;11.50;10.07;;;17.60;99.90;;;17.22;100.00;101174.41;5053125;28;20296;-73
2023/08/18 05:55:25;;;;;;;13.93;11.40;;;17.70;99.90;;;17.26;100.00;101180.22;5053173;28;20196;-73
2023/08/18 05:58:03;;;;;;;13.40;12.03;;;17.70;99.90;;;17.28;100.00;101172.78;5053175;28;20190;-73
2023/08/18 06:00:35;;;;;;;15.03;11.50;;;17.70;99.90;;;17.27;100.00;101171.09;5052813;28;20643;-73
2023/08/18 06:03:07;;;;;;;14.03;12.67;;;17.70;99.90;;;17.28;100.00;101174.63;5052708;28;20264;-73
2023/08/18 06:05:39;;;;;;;14.43;13.00;;;17.70;99.90;;;17.27;100.00;101171.09;5053099;28;20198;-73
2023/08/18 06:08:11;;;;;;;14.80;12.77;;;17.70;99.90;;;17.29;100.00;101179.88;5053062;28;20281;-73
2023/08/18 06:10:43;;;;;;;13.13;10.73;;;17.70;99.90;;;17.32;100.00;101174.06;5053063;28;20281;-73
2023/08/18 06:13:17;;;;;;;14.77;12.20;;;17.80;99.90;;;17.35;100.00;101179.09;5052871;28;20229;-73
2023/08/18 06:15:52;;;;;;;17.03;11.53;;;17.80;99.90;;;17.38;100.00;101184.13;5053002;28;20201;-73
2023/08/18 06:18:24;;;;;;;11.33;10.13;;;17.90;99.90;;;17.41;100.00;101182.88;5052653;28;20666;-73
2023/08/18 06:20:56;;;;;;;19.13;13.53;;;18.00;99.90;;;17.45;100.00;101181.47;5052988;28;20222;-73
2023/08/18 06:23:28;;;;;;;14.57;12.07;;;17.90;99.90;;;17.45;100.00;101178.75;5053665;28;20283;-73
2023/08/18 06:26:00;;;;;;;18.37;13.67;;;17.90;99.90;;;17.47;100.00;101177.53;5056614;28;20257;-73
2023/08/18 06:28:33;;;;;;;14.47;13.03;;;18.00;99.90;;;17.49;100.00;101180.06;5056648;28;20190;-73
2023/08/18 06:31:09;;;;;;;13.70;12.20;;;18.00;99.90;;;17.52;100.00;101183.22;5056279;28;20596;-73
2023/08/18 06:33:41;;;;;;;15.33;13.73;;;18.00;99.90;;;17.55;99.98;101182.81;5056380;28;20229;-73
2023/08/18 06:36:13;;;;;;;14.57;12.00;;;18.00;99.90;;;17.56;99.86;101187.25;5056185;28;20737;-73
2023/08/18 06:38:45;;;;;;;15.67;13.80;;;18.10;99.90;;;17.61;99.57;101189.34;5056419;28;20218;-73
2023/08/18 06:41:16;;;;;;;14.10;12.67;;;18.10;99.90;;;17.65;100.00;101183.34;5056399;28;20194;-73
2023/08/18 06:43:49;;;;;;;17.20;14.20;;;18.20;99.90;;;17.67;100.00;101183.97;5056210;28;20226;-73
2023/08/18 06:46:22;;;;;;;14.97;13.40;;;18.20;99.90;;;17.70;100.00;101182.78;5056141;28;20285;-73
2023/08/18 06:48:54;;;;;;;15.27;13.77;;;18.20;99.90;;;17.74;100.00;101186.72;5055927;28;20564;-73
2023/08/18 06:51:26;;;;;;;16.57;14.83;;;18.20;99.90;;;17.78;100.00;101187.19;5056234;28;20273;-73
2023/08/18 06:53:57;;;;;;;14.23;12.93;;;18.30;99.90;;;17.81;100.00;101184.09;5056344;28;20234;-73
2023/08/18 06:56:29;;;;;;;15.63;14.13;;;18.30;99.90;;;17.84;100.00;101191.84;5055829;28;20664;-73
2023/08/18 06:59:03;;;;;;;13.57;12.10;;;18.30;99.90;;;17.89;100.00;101187.50;5056088;28;20202;-73
2023/08/18 07:01:35;;;;;;;14.53;13.13;;;18.40;99.90;;;17.92;100.00;101186.25;5056030;28;20197;-73
2023/08/18 07:04:08;;;;;;;15.20;13.70;;;18.50;99.90;;;17.94;100.00;101184.19;5055778;28;20230;-73
2023/08/18 07:06:43;;;;;;;17.33;14.27;;;18.50;99.90;;;17.96;100.00;101188.38;5055637;28;20641;-73
2023/08/18 07:09:15;;;;;;;14.53;13.20;;;18.50;99.90;;;18.01;100.00;101179.66;5055898;28;20285;-73
2023/08/18 07:11:47;;;;;;;15.93;14.27;;;18.60;99.90;;;18.08;100.00;101188.69;5055546;28;20661;-73
2023/08/18 07:14:20;;;;;;;15.47;13.97;;;18.60;99.90;;;18.11;99.70;101181.00;5055644;28;20261;-73
2023/08/18 07:16:52;;;;;;;14.10;12.60;;;18.60;99.90;;;18.17;99.66;101173.94;5055773;28;20230;-73
2023/08/18 07:19:24;;;;;;;15.03;12.73;;;18.70;99.90;;;18.21;99.75;101183.34;5055699;28;20281;-73
2023/08/18 07:21:57;;;;;;;16.93;14.87;;;18.80;99.90;;;18.22;99.51;101177.69;5055669;28;20294;-73
2023/08/18 07:24:29;;;;;;;15.90;13.17;;;18.70;99.90;;;18.27;99.31;101178.97;5055540;28;20253;-73
2023/08/18 07:27:01;;;;;;;15.40;13.97;;;18.80;99.90;;;18.33;99.05;101176.31;5055448;28;20277;-73
2023/08/18 07:29:34;;;;;;;16.23;14.63;;;18.90;99.90;;;18.37;99.39;101177.59;5055472;28;20617;-73
2023/08/18 07:32:07;;;;;;;17.73;13.77;;;18.90;99.90;;;18.41;98.36;101176.16;5055450;28;20282;-73
2023/08/18 07:34:40;;;;;;;15.67;14.03;;;18.90;99.90;;;18.43;97.93;101178.66;5054323;28;20272;-73
2023/08/18 07:37:12;;;;;;;14.90;12.87;;;19.00;99.90;;;18.47;98.35;101178.06;5054829;28;20596;-73
2023/08/18 07:39:44;;;;;;;15.50;13.97;;;19.00;99.90;;;18.51;98.78;101178.53;5055320;28;20281;-73
2023/08/18 07:42:16;;;;;;;14.00;12.60;;;19.10;99.90;;;18.59;99.54;101178.38;5055281;28;20281;-73
2023/08/18 07:44:49;;;;;;;15.50;13.90;;;19.10;99.90;;;18.62;98.80;101184.22;5055130;28;20317;-73
2023/08/18 07:47:21;;;;;;;15.00;13.40;;;19.20;99.90;;;18.68;99.85;101194.25;5054831;28;20314;-73
2023/08/18 07:49:52;;;;;;;16.10;14.47;;;19.20;99.90;;;18.80;99.40;101196.41;5054803;28;20198;-73
2023/08/18 07:52:24;;;;;;;16.17;14.50;;;19.30;99.90;;;18.82;98.95;101188.88;5054968;28;20190;-73
2023/08/18 07:54:56;;;;;;;15.73;13.27;;;19.40;99.90;;;18.91;99.68;101187.66;5054959;28;20720;-73
2023/08/18 07:57:28;;;;;;;14.20;12.83;;;19.50;99.90;;;18.93;99.41;101186.41;5054969;28;20281;-73
2023/08/18 08:00:07;;;;;;;14.67;13.20;;;19.50;99.90;;;18.95;98.76;101181.63;5054889;28;20198;-73
2023/08/18 08:02:40;;;;;;;14.23;12.73;;;19.50;99.90;;;18.98;98.62;101183.06;5054792;28;20194;-73
2023/08/18 08:05:13;;;;;;;14.30;12.97;;;19.50;99.90;;;19.06;98.43;101182.91;5054822;28;20240;-73
2023/08/18 08:07:45;;;;;;;15.60;14.17;;;19.60;99.90;;;19.13;98.53;101190.03;5054543;28;20237;-67
2023/08/18 08:10:18;;;;;;;14.50;13.20;;;19.70;99.90;;;19.20;97.61;101188.16;5054702;28;20194;-66
2023/08/18 08:12:50;;;;;;;14.77;13.27;;;19.80;99.90;;;19.30;97.16;101187.75;5054624;28;20226;-74
2023/08/18 08:15:23;;;;;;;15.47;13.73;;;19.90;99.90;;;19.35;97.55;101190.66;5054526;28;20301;-74
2023/08/18 08:17:56;;;;;;;15.03;13.47;;;19.90;99.90;;;19.43;97.57;101198.66;5054617;28;20193;-74
2023/08/18 08:20:28;;;;;;;14.00;12.60;;;20.00;99.90;;;19.47;98.14;101191.78;5054539;28;20282;-75
2023/08/18 08:23:01;;;;;;;15.50;14.10;;;20.00;99.90;;;19.48;97.96;101188.03;5054445;28;20230;-75
2023/08/18 08:25:33;;;;;;;14.67;13.17;;;20.00;99.90;;;19.52;97.96;101186.53;5054455;28;20186;-75
2023/08/18 08:28:05;;;;;;;13.67;12.17;;;20.10;99.90;;;19.59;97.79;101190.09;5054532;28;20633;-75
2023/08/18 08:30:44;;;;;;;16.80;11.70;;;20.10;99.90;;;19.63;96.80;101183.22;5054376;28;20190;-75
2023/08/18 08:33:16;;;;;;;14.13;12.67;;;20.20;99.90;;;19.71;95.18;101187.63;5054270;28;20314;-75
2023/08/18 08:35:48;;;;;;;15.10;13.23;;;20.30;99.90;;;19.77;96.96;101185.94;5054241;28;20221;-75
2023/08/18 08:38:20;;;;;;;15.50;14.00;;;20.40;99.90;;;19.83;97.11;101187.84;5054218;28;20252;-75
2023/08/18 08:40:55;;;;;;;12.77;11.03;;;20.40;99.90;;;19.91;97.50;101184.88;5054159;28;20565;-75
2023/08/18 08:43:27;;;;;;;14.20;12.73;;;20.50;99.90;;;19.94;97.09;101190.72;5054086;28;20229;-75
2023/08/18 08:46:03;;;;;;;15.50;13.43;;;20.50;99.90;;;20.03;96.07;101191.38;5053773;28;20259;-75
2023/08/18 08:48:45;;;;;;;12.97;11.67;;;20.60;99.90;;;20.11;96.23;101196.56;5053793;28;20628;-75
2023/08/18 08:51:22;;;;;;;12.03;10.90;;;20.70;99.90;;;20.17;96.34;101191.13;5053695;28;20560;-75
2023/08/18 08:54:00;;;;;;;12.07;10.87;;;20.70;99.90;;;20.24;95.33;101191.09;5053847;28;20247;-75
2023/08/18 08:56:38;;;;;;;13.57;12.23;;;20.80;99.90;;;20.34;95.35;101191.56;5053818;28;20228;-74
2023/08/18 08:59:11;;;;;;;12.47;11.27;;;20.90;99.90;;;20.56;94.90;101186.66;5053828;28;20280;-75
2023/08/18 09:01:52;;;;;;;11.93;10.73;;;21.20;99.90;;;20.60;95.71;101196.06;5053817;28;20606;-75
2023/08/18 09:04:26;;;;;;;10.90;9.70;;;21.20;99.90;;;20.65;96.03;101183.47;5053400;28;20605;-75
2023/08/18 09:06:58;;;;;;;10.93;9.93;;;21.30;99.90;;;20.68;94.25;101177.63;5053766;28;20277;-75
2023/08/18 09:09:30;;;;;;;12.53;11.23;;;21.30;99.90;;;20.87;93.64;101177.72;5053746;28;20221;-75
2023/08/18 09:12:06;;;;;;;14.13;11.00;;;21.50;99.90;;;20.96;91.91;101179.16;5053380;28;20644;-75
2023/08/18 09:14:39;;;;;;;12.80;11.30;;;21.60;99.90;;;21.09;92.62;101170.91;5053465;28;20230;-75
2023/08/18 09:17:13;;;;;;;11.47;10.40;;;21.70;99.90;;;21.17;91.29;101170.66;5053281;28;20290;-75
2023/08/18 09:19:45;;;;;;;12.27;11.07;;;21.80;99.90;;;21.29;91.73;101170.81;5053553;28;20312;-74
2023/08/18 09:22:20;;;;;;;12.53;11.23;;;21.90;99.90;;;21.32;90.90;101173.94;5053524;28;20272;-74
2023/08/18 09:24:56;;;;;;;12.60;11.43;;;21.90;99.90;;;21.42;90.37;101168.84;5053507;28;20591;-74
2023/08/18 09:27:30;;;;;;;14.67;11.90;;;22.00;99.90;;;21.57;89.15;101171.25;5053129;28;20190;-74
2023/08/18 09:30:02;;;;;;;11.93;10.83;;;22.10;99.90;;;21.58;90.89;101165.56;5053466;28;20190;-74
2023/08/18 09:32:38;;;;;;;12.23;11.13;;;22.20;99.90;;;21.64;90.69;101167.38;5053637;28;20191;-74
2023/08/18 09:35:19;;;;;;;9.60;8.73;;;22.20;99.90;;;21.72;90.77;101164.38;5053255;28;20217;-74
2023/08/18 09:38:00;;;;;;;11.43;10.37;;;22.30;99.90;;;21.86;90.00;101156.94;5053335;28;20277;-74
2023/08/18 09:40:33;;;;;;;10.50;9.57;;;22.40;99.90;;;21.93;87.01;101159.63;5053412;28;20281;-71
2023/08/18 09:43:05;;;;;;;11.50;9.50;;;22.50;99.90;;;21.98;88.50;101148.91;5053327;28;20675;-72
2023/08/18 09:45:40;;;;;;;10.97;9.07;;;22.50;99.90;;;22.03;89.21;101151.75;5052979;28;20637;-72
2023/08/18 09:48:18;;;;;;;11.27;10.37;;;22.60;99.90;;;22.25;86.74;101147.56;5052888;28;20213;-72
2023/08/18 09:50:58;;;;;;;10.53;9.43;;;22.80;99.90;;;22.37;86.60;101142.16;5053457;28;20213;-71
2023/08/18 09:53:34;;;;;;;10.33;9.33;;;23.00;99.90;;;22.44;86.37;101135.56;5052822;28;20745;-73
2023/08/18 09:56:14;;;;;;;11.80;9.00;;;23.00;99.90;;;22.56;86.21;101139.22;5053184;28;20292;-72
2023/08/18 09:58:54;;;;;;;9.17;8.37;;;23.20;99.90;;;22.64;86.61;101130.69;5054222;28;20244;-73
2023/08/18 10:01:30;;;;;;;8.90;8.00;;;23.20;99.90;;;22.78;84.70;101136.00;5057489;28;20190;-72
2023/08/18 10:04:06;;;;;;;9.87;8.43;;;23.40;99.90;;;22.78;86.84;101120.44;5057292;28;20229;-73
2023/08/18 10:06:39;;;;;;;9.87;8.97;;;23.40;99.90;;;22.83;85.65;101119.78;5056817;28;20186;-73
2023/08/18 10:09:13;;;;;;;9.43;8.47;;;23.40;99.90;;;22.99;84.61;101116.38;5057027;28;20217;-73
2023/08/18 10:11:46;;;;;;;8.87;7.80;;;23.60;99.90;;;23.00;86.38;101109.84;5056983;28;20561;-73
2023/08/18 10:14:26;;;;;;;9.23;8.40;;;23.60;99.90;;;23.12;85.48;101116.19;5056555;28;20229;-73
2023/08/18 10:17:00;;;;;;;9.63;8.03;;;23.70;99.90;;;23.17;86.47;101106.22;5057018;28;20296;-73
2023/08/18 10:19:58;;;;;;;9.77;8.77;;;23.80;99.90;;;23.33;85.61;101107.44;5056823;28;20277;-72
2023/08/18 10:22:33;;;;;;;9.93;8.80;;;24.00;99.90;;;23.59;81.86;101101.56;5056699;28;20195;-72